createdAt,value
2019-04-23T00:00:13.925Z,42.90
2019-04-23T00:02:25.146Z,41.90
2019-04-23T00:04:23.965Z,42.40
2019-04-23T00:06:34.297Z,42.00
2019-04-23T00:08:41.534Z,42.70
2019-04-23T00:10:59.168Z,42.20
2019-04-23T00:14:54.810Z,42.50
2019-04-23T00:16:51.175Z,42.50
2019-04-23T00:18:50.867Z,43.30
2019-04-23T00:21:11.275Z,43.40
2019-04-23T00:25:34.496Z,42.60
2019-04-23T00:29:27.965Z,43.30
2019-04-23T00:31:44.274Z,43.30
2019-04-23T00:33:29.713Z,43.20
2019-04-23T00:35:41.721Z,43.30
2019-04-23T00:37:41.825Z,42.40
2019-04-23T00:39:51.506Z,43.20
2019-04-23T00:41:51.182Z,43.10
2019-04-23T00:43:57.826Z,43.60
2019-04-23T00:46:09.535Z,42.90
2019-04-23T00:47:54.798Z,43.30
2019-04-23T00:50:14.863Z,43.30
2019-04-23T00:52:09.448Z,43.70
2019-04-23T00:54:13.936Z,43.20
2019-04-23T00:56:32.088Z,43.90
2019-04-23T00:58:22.402Z,43.20
2019-04-23T01:00:28.181Z,43.20
2019-04-23T01:02:26.372Z,43.60
2019-04-23T01:04:41.940Z,44.00
2019-04-23T01:06:29.103Z,44.60
2019-04-23T01:08:36.786Z,43.80
2019-04-23T01:10:54.091Z,44.50
2019-04-23T01:12:51.553Z,45.10
2019-04-23T01:14:56.290Z,44.40
2019-04-23T01:16:55.051Z,44.90
2019-04-23T01:18:58.077Z,45.10
2019-04-23T01:20:54.389Z,44.10
2019-04-23T01:22:59.089Z,44.20
2019-04-23T01:25:24.454Z,44.70
2019-04-23T01:29:56.224Z,43.40
2019-04-23T01:31:53.180Z,44.30
2019-04-23T01:34:18.536Z,43.40
2019-04-23T01:36:14.023Z,45.00
2019-04-23T01:38:02.139Z,44.80
2019-04-23T01:42:14.576Z,44.80
2019-04-23T01:44:14.181Z,45.00
2019-04-23T01:46:12.966Z,44.30
2019-04-23T01:48:18.135Z,44.30
2019-04-23T01:50:34.498Z,45.80
2019-04-23T01:52:34.854Z,46.30
2019-04-23T01:54:30.540Z,46.20
2019-04-23T01:56:35.154Z,46.40
2019-04-23T01:58:49.593Z,46.90
2019-04-23T02:00:40.985Z,45.90
2019-04-23T02:02:51.088Z,45.60
2019-04-23T02:04:55.787Z,46.00
2019-04-23T02:06:50.525Z,45.80
2019-04-23T02:08:58.834Z,46.30
2019-04-23T02:13:11.119Z,46.00
2019-04-23T02:15:12.236Z,46.40
2019-04-23T02:17:33.318Z,46.90
2019-04-23T02:19:21.945Z,46.70
2019-04-23T02:21:26.062Z,47.80
2019-04-23T02:23:44.632Z,46.10
2019-04-23T02:27:56.146Z,46.30
2019-04-23T02:30:06.385Z,47.60
2019-04-23T02:32:09.190Z,46.60
2019-04-23T02:34:13.769Z,47.60
2019-04-23T02:42:41.525Z,48.20
2019-04-23T02:46:20.941Z,47.30
2019-04-23T02:48:41.203Z,48.20
2019-04-23T02:50:40.516Z,47.60
2019-04-23T02:52:41.672Z,46.60
2019-04-23T02:58:57.671Z,47.70
2019-04-23T03:01:07.160Z,48.20
2019-04-23T03:02:59.155Z,48.70
2019-04-23T03:05:04.901Z,48.10
2019-04-23T03:07:16.051Z,48.50
2019-04-23T03:09:29.819Z,50.30
2019-04-23T03:11:15.609Z,49.60
2019-04-23T03:16:03.778Z,48.90
2019-04-23T03:18:20.584Z,49.30
2019-04-23T03:20:14.881Z,49.20
2019-04-23T03:22:35.508Z,48.90
2019-04-23T03:24:43.494Z,50.00
2019-04-23T03:27:08.077Z,50.00
2019-04-23T03:28:55.297Z,50.50
2019-04-23T03:37:19.754Z,49.10
2019-04-23T03:41:21.539Z,50.10
2019-04-23T03:43:25.971Z,49.90
2019-04-23T03:45:44.539Z,50.40
2019-04-23T03:49:36.203Z,49.30
2019-04-23T03:51:38.360Z,49.10
2019-04-23T03:55:52.091Z,50.40
2019-04-23T03:57:45.033Z,49.10
2019-04-23T04:08:13.943Z,50.40
2019-04-23T04:09:59.301Z,49.50
2019-04-23T04:12:16.620Z,49.40
2019-04-23T04:14:23.710Z,49.80
2019-04-23T04:18:30.915Z,49.80
2019-04-23T04:24:34.683Z,51.90
2019-04-23T04:26:49.324Z,51.00
2019-04-23T04:28:47.208Z,50.50
2019-04-23T04:33:02.309Z,51.70
2019-04-23T04:37:27.047Z,51.80
2019-04-23T04:38:57.725Z,51.80
2019-04-23T04:41:03.390Z,51.60
2019-04-23T04:43:20.487Z,52.20
2019-04-23T04:47:09.674Z,52.50
2019-04-23T04:49:12.078Z,54.10
2019-04-23T04:53:37.946Z,52.90
2019-04-23T04:57:43.342Z,53.50
2019-04-23T05:01:28.754Z,54.50
2019-04-23T05:07:48.222Z,54.90
2019-04-23T05:12:01.661Z,55.70
2019-04-23T05:15:58.697Z,54.60
2019-04-23T05:20:16.997Z,54.60
2019-04-23T05:22:32.568Z,56.10
2019-04-23T05:28:30.025Z,57.00
2019-04-23T05:30:35.848Z,56.00
2019-04-23T05:32:28.741Z,54.70
2019-04-23T05:34:35.745Z,56.60
2019-04-23T05:36:40.147Z,57.40
2019-04-23T05:40:55.547Z,57.30
2019-04-23T05:42:45.688Z,58.40
2019-04-23T05:45:00.964Z,56.60
2019-04-23T05:46:55.771Z,58.40
2019-04-23T05:49:00.130Z,58.00
2019-04-23T05:51:04.574Z,58.80
2019-04-23T05:53:05.275Z,58.20
2019-04-23T05:55:10.648Z,58.80
2019-04-23T05:57:09.970Z,58.80
2019-04-23T06:01:42.006Z,59.00
2019-04-23T06:05:34.101Z,61.20
2019-04-23T06:07:47.769Z,60.20
2019-04-23T06:09:56.701Z,60.60
2019-04-23T06:13:56.147Z,59.90
2019-04-23T06:15:46.734Z,60.10
2019-04-23T06:17:55.854Z,62.10
2019-04-23T06:19:57.012Z,61.30
2019-04-23T06:22:06.011Z,62.20
2019-04-23T06:24:15.142Z,62.00
2019-04-23T06:30:34.321Z,59.30
2019-04-23T06:32:16.665Z,61.60
2019-04-23T06:34:21.732Z,62.10
2019-04-23T06:36:27.744Z,59.40
2019-04-23T06:40:38.906Z,62.90
2019-04-23T06:42:29.544Z,60.30
2019-04-23T06:44:42.422Z,61.70
2019-04-23T06:46:52.331Z,60.70
2019-04-23T06:48:47.590Z,59.90
2019-04-23T06:51:02.393Z,62.00
2019-04-23T06:52:50.136Z,59.20
2019-04-23T06:55:01.184Z,63.90
2019-04-23T06:57:14.609Z,59.70
2019-04-23T06:59:07.598Z,62.90
2019-04-23T07:03:14.939Z,64.00
2019-04-23T07:05:15.779Z,60.70
2019-04-23T07:09:35.411Z,58.70
2019-04-23T07:11:34.164Z,62.80
2019-04-23T07:13:41.307Z,62.00
2019-04-23T07:17:34.310Z,63.20
2019-04-23T07:19:42.506Z,61.20
2019-04-23T07:21:42.069Z,62.80
2019-04-23T07:24:00.685Z,62.70
2019-04-23T07:25:59.821Z,62.00
2019-04-23T07:27:58.530Z,61.00
2019-04-23T07:30:02.131Z,61.90
2019-04-23T07:32:03.633Z,61.60
2019-04-23T07:36:13.811Z,60.80
2019-04-23T07:38:36.405Z,59.60
2019-04-23T07:42:42.151Z,61.80
2019-04-23T07:44:59.004Z,61.40
2019-04-23T07:47:11.718Z,60.80
2019-04-23T07:49:06.757Z,62.20
2019-04-23T07:51:06.395Z,60.60
2019-04-23T07:53:23.116Z,60.30
2019-04-23T07:55:23.635Z,60.70
2019-04-23T07:59:25.317Z,60.80
2019-04-23T08:01:24.439Z,61.50
2019-04-23T08:03:43.496Z,59.90
2019-04-23T08:05:35.782Z,60.50
2019-04-23T08:07:35.964Z,60.90
2019-04-23T08:11:56.435Z,61.20
2019-04-23T08:15:49.837Z,59.80
2019-04-23T08:17:59.010Z,60.70
2019-04-23T08:20:04.681Z,59.90
2019-04-23T08:22:18.717Z,59.40
2019-04-23T08:26:26.758Z,58.00
2019-04-23T08:28:38.401Z,59.00
2019-04-23T08:30:28.930Z,58.70
2019-04-23T08:32:21.505Z,61.20
2019-04-23T08:36:42.329Z,59.70
2019-04-23T08:38:56.842Z,58.20
2019-04-23T08:40:55.617Z,58.90
2019-04-23T08:43:09.462Z,58.80
2019-04-23T08:49:40.393Z,59.70
2019-04-23T08:53:51.601Z,60.10
2019-04-23T08:55:49.991Z,59.00
2019-04-23T08:57:43.730Z,59.50
2019-04-23T09:02:18.197Z,58.60
2019-04-23T09:04:00.368Z,59.20
2019-04-23T09:06:15.985Z,59.40
2019-04-23T09:10:11.239Z,59.40
2019-04-23T09:12:18.765Z,59.30
2019-04-23T09:14:05.228Z,60.10
2019-04-23T09:16:29.145Z,59.20
2019-04-23T09:22:36.466Z,58.50
2019-04-23T09:24:33.299Z,58.10
2019-04-23T09:26:42.653Z,58.80
2019-04-23T09:28:45.381Z,58.80
2019-04-23T09:30:49.682Z,59.80
2019-04-23T09:32:51.607Z,58.40
2019-04-23T09:35:17.510Z,58.90
2019-04-23T09:37:20.639Z,58.50
2019-04-23T09:39:23.043Z,58.40
2019-04-23T09:43:31.502Z,58.40
2019-04-23T09:58:37.935Z,58.50
2019-04-23T10:00:43.715Z,58.00
2019-04-23T10:02:41.450Z,58.70
2019-04-23T10:04:47.620Z,58.30
2019-04-23T10:06:36.735Z,57.90
2019-04-23T10:08:42.122Z,57.90
2019-04-23T10:10:40.732Z,57.60
2019-04-23T10:12:44.076Z,57.50
2019-04-23T10:14:59.353Z,57.30
2019-04-23T10:16:51.650Z,57.70
2019-04-23T10:18:55.032Z,58.20
2019-04-23T10:20:57.217Z,56.90
2019-04-23T10:23:02.144Z,58.20
2019-04-23T10:25:04.299Z,57.90
2019-04-23T10:27:08.389Z,58.00
2019-04-23T10:29:14.269Z,58.30
2019-04-23T10:31:18.730Z,57.80
2019-04-23T10:33:21.337Z,57.20
2019-04-23T10:35:35.368Z,55.90
2019-04-23T10:37:36.703Z,56.30
2019-04-23T10:39:36.951Z,56.30
2019-04-23T10:41:42.510Z,56.40
2019-04-23T10:43:46.442Z,56.00
2019-04-23T10:46:11.795Z,56.10
2019-04-23T10:50:49.555Z,56.00
2019-04-23T10:52:51.100Z,55.20
2019-04-23T10:54:46.934Z,56.20
2019-04-23T10:56:53.599Z,56.60
2019-04-23T10:58:53.943Z,56.70
2019-04-23T11:03:12.573Z,55.20
2019-04-23T11:05:08.708Z,55.90
2019-04-23T11:07:20.761Z,55.90
2019-04-23T11:09:27.432Z,56.80
2019-04-23T11:11:21.966Z,55.40
2019-04-23T11:13:38.313Z,56.10
2019-04-23T11:17:38.308Z,57.00
2019-04-23T11:19:41.314Z,57.10
2019-04-23T11:21:40.757Z,56.30
2019-04-23T11:23:43.931Z,57.10
2019-04-23T11:25:44.840Z,56.90
2019-04-23T11:27:59.748Z,55.40
2019-04-23T11:30:05.491Z,55.40
2019-04-23T11:32:13.383Z,56.00
2019-04-23T11:34:14.351Z,55.20
2019-04-23T11:38:38.849Z,54.70
2019-04-23T11:40:15.747Z,54.70
2019-04-23T11:42:16.782Z,54.40
2019-04-23T11:44:22.166Z,54.40
2019-04-23T11:51:17.540Z,55.30
2019-04-23T11:52:48.357Z,54.90
2019-04-23T11:57:07.948Z,53.60
2019-04-23T11:58:42.889Z,53.70
2019-04-23T12:01:11.648Z,54.20
2019-04-23T12:03:03.040Z,53.80
2019-04-23T12:05:26.565Z,53.30
2019-04-23T12:07:29.798Z,53.10
2019-04-23T12:13:51.550Z,52.00
2019-04-23T12:15:53.841Z,55.20
2019-04-23T12:17:53.876Z,52.40
2019-04-23T12:20:19.834Z,53.10
2019-04-23T12:26:11.608Z,52.10
2019-04-23T12:28:18.021Z,50.20
2019-04-23T12:30:27.545Z,50.50
2019-04-23T12:34:35.832Z,50.80
2019-04-23T12:38:39.077Z,49.90
2019-04-23T12:40:43.189Z,52.60
2019-04-23T12:45:09.166Z,52.20
2019-04-23T12:47:02.612Z,50.70
2019-04-23T12:49:13.027Z,51.70
2019-04-23T12:51:26.603Z,50.30
2019-04-23T12:53:11.973Z,50.30
2019-04-23T12:57:17.218Z,49.10
2019-04-23T12:59:23.795Z,48.60
2019-04-23T13:01:25.692Z,48.80
2019-04-23T13:03:31.396Z,48.50
2019-04-23T13:05:31.161Z,49.10
2019-04-23T13:07:38.208Z,48.80
2019-04-23T13:09:46.032Z,49.70
2019-04-23T13:11:52.877Z,50.20
2019-04-23T13:13:52.017Z,50.60
2019-04-23T13:16:14.693Z,50.20
2019-04-23T13:24:19.825Z,50.00
2019-04-23T13:26:11.836Z,49.70
2019-04-23T13:30:37.460Z,53.10
2019-04-23T13:32:35.802Z,51.80
2019-04-23T13:34:41.414Z,52.20
2019-04-23T13:36:44.881Z,51.20
2019-04-23T13:38:41.712Z,50.60
2019-04-23T13:42:57.250Z,50.20
2019-04-23T13:44:55.892Z,53.00
2019-04-23T13:47:00.518Z,51.00
2019-04-23T13:48:55.438Z,50.10
2019-04-23T13:51:19.466Z,51.20
2019-04-23T13:59:24.277Z,49.40
2019-04-23T14:01:30.839Z,48.80
2019-04-23T14:05:45.587Z,46.70
2019-04-23T14:11:38.619Z,46.30
2019-04-23T14:14:08.360Z,45.20
2019-04-23T14:16:22.657Z,45.50
2019-04-23T14:18:19.755Z,44.30
2019-04-23T14:20:08.644Z,44.30
2019-04-23T14:24:18.207Z,44.00
2019-04-23T14:26:25.932Z,43.80
2019-04-23T14:28:28.813Z,45.10
2019-04-23T14:30:32.296Z,44.90
2019-04-23T14:34:26.538Z,44.40
2019-04-23T14:36:39.566Z,43.10
2019-04-23T14:38:40.333Z,43.20
2019-04-23T14:40:44.478Z,42.60
2019-04-23T14:45:00.431Z,46.00
2019-04-23T14:46:58.407Z,44.60
2019-04-23T14:51:09.546Z,42.80
2019-04-23T14:53:13.151Z,43.30
2019-04-23T14:55:40.176Z,43.30
2019-04-23T14:57:15.697Z,43.60
2019-04-23T14:59:19.799Z,43.50
2019-04-23T15:01:28.085Z,43.60
2019-04-23T15:09:52.213Z,44.10
2019-04-23T15:13:46.865Z,44.40
2019-04-23T15:15:54.030Z,43.60
2019-04-23T15:17:51.934Z,44.50
2019-04-23T15:19:59.955Z,44.40
2019-04-23T15:22:04.616Z,46.50
2019-04-23T15:28:06.596Z,45.00
2019-04-23T15:30:04.050Z,42.60
2019-04-23T15:32:24.152Z,42.30
2019-04-23T15:34:20.933Z,43.10
2019-04-23T15:36:59.773Z,41.60
2019-04-23T15:38:45.377Z,43.60
2019-04-23T15:40:32.942Z,41.80
2019-04-23T15:42:44.227Z,43.00
2019-04-23T15:44:41.899Z,42.30
2019-04-23T15:48:54.317Z,42.00
2019-04-23T15:50:52.415Z,41.50
2019-04-23T15:52:54.487Z,40.30
2019-04-23T15:57:01.201Z,40.10
2019-04-23T16:01:21.245Z,41.20
2019-04-23T16:02:49.821Z,40.30
2019-04-23T16:04:53.355Z,41.00
2019-04-23T16:06:56.791Z,41.40
2019-04-23T16:09:15.761Z,42.70
2019-04-23T16:11:39.694Z,43.00
2019-04-23T16:14:02.854Z,42.30
2019-04-23T16:15:48.514Z,42.50
2019-04-23T16:17:42.212Z,43.60
2019-04-23T16:20:05.990Z,43.30
2019-04-23T16:22:03.675Z,43.10
2019-04-23T16:24:08.211Z,42.90
2019-04-23T16:26:14.655Z,42.80
2019-04-23T16:32:29.609Z,44.90
2019-04-23T16:35:10.587Z,46.90
2019-04-23T16:37:06.189Z,46.10
2019-04-23T16:39:06.183Z,46.00
2019-04-23T16:41:09.944Z,45.60
2019-04-23T16:43:19.967Z,46.60
2019-04-23T16:45:15.282Z,45.40
2019-04-23T16:47:21.910Z,46.90
2019-04-23T16:51:43.555Z,46.60
2019-04-23T16:53:27.084Z,46.40
2019-04-23T16:57:54.145Z,45.20
2019-04-23T16:59:48.549Z,46.20
2019-04-23T17:01:43.714Z,46.50
2019-04-23T17:03:55.372Z,46.00
2019-04-23T17:05:59.447Z,45.40
2019-04-23T17:08:21.733Z,45.80
2019-04-23T17:10:08.345Z,45.60
2019-04-23T17:14:10.218Z,46.30
2019-04-23T17:18:11.257Z,46.70
2019-04-23T17:20:16.274Z,46.20
2019-04-23T17:22:31.407Z,46.70
2019-04-23T17:24:32.398Z,47.20
2019-04-23T17:26:25.671Z,46.50
2019-04-23T17:30:32.323Z,46.00
2019-04-23T17:32:39.159Z,46.80
2019-04-23T17:35:11.328Z,46.40
2019-04-23T17:39:13.011Z,47.20
2019-04-23T17:41:31.398Z,47.40
2019-04-23T17:43:33.179Z,48.00
2019-04-23T17:45:32.293Z,47.30
2019-04-23T17:47:51.573Z,47.70
2019-04-23T17:50:01.559Z,47.70
2019-04-23T17:51:57.517Z,48.10
2019-04-23T17:54:04.958Z,47.50
2019-04-23T17:58:07.460Z,47.90
2019-04-23T18:04:20.599Z,47.80
2019-04-23T18:06:27.941Z,48.40
2019-04-23T18:10:27.600Z,48.10
2019-04-23T18:14:28.360Z,48.70
2019-04-23T18:18:53.349Z,48.70
2019-04-23T18:21:13.926Z,49.00
2019-04-23T18:23:05.805Z,49.30
2019-04-23T18:25:11.188Z,49.60
2019-04-23T18:27:12.001Z,49.90
2019-04-23T18:29:51.030Z,50.10
2019-04-23T18:34:59.695Z,49.90
2019-04-23T18:36:48.162Z,51.00
2019-04-23T18:38:52.675Z,50.80
2019-04-23T18:41:02.141Z,50.90
2019-04-23T18:43:07.641Z,51.20
2019-04-23T18:45:03.786Z,50.70
2019-04-23T18:47:06.803Z,51.10
2019-04-23T18:49:14.851Z,51.20
2019-04-23T18:51:07.934Z,51.10
2019-04-23T18:53:29.661Z,51.10
2019-04-23T18:55:35.014Z,51.20
2019-04-23T18:57:25.231Z,51.60
2019-04-23T18:59:41.106Z,51.60
2019-04-23T19:01:42.292Z,51.90
2019-04-23T19:03:55.617Z,52.00
2019-04-23T19:06:07.164Z,52.30
2019-04-23T19:12:35.995Z,52.30
2019-04-23T19:16:53.442Z,52.70
2019-04-23T19:18:54.712Z,52.90
2019-04-23T19:24:51.925Z,53.00
2019-04-23T19:27:10.605Z,53.20
2019-04-23T19:29:00.385Z,53.40
2019-04-23T19:33:29.302Z,53.40
2019-04-23T19:35:41.392Z,53.70
2019-04-23T19:37:34.887Z,53.80
2019-04-23T19:39:29.573Z,54.40
2019-04-23T19:41:49.591Z,53.90
2019-04-23T19:43:45.145Z,54.10
2019-04-23T19:45:51.826Z,54.10
2019-04-23T19:47:54.384Z,54.20
2019-04-23T19:50:05.506Z,54.00
2019-04-23T19:51:53.429Z,54.40
2019-04-23T19:56:08.863Z,54.20
2019-04-23T19:58:14.594Z,54.30
2019-04-23T20:00:02.773Z,54.20
2019-04-23T20:04:17.343Z,54.10
2019-04-23T20:06:48.484Z,53.90
2019-04-23T20:08:34.069Z,53.60
2019-04-23T20:10:28.532Z,53.70
2019-04-23T20:16:52.488Z,53.40
2019-04-23T20:20:49.653Z,53.40
2019-04-23T20:22:55.491Z,53.20
2019-04-23T20:27:06.006Z,53.20
2019-04-23T20:29:35.185Z,53.10
2019-04-23T20:34:19.602Z,52.80
2019-04-23T20:40:08.652Z,53.10
2019-04-23T20:42:13.005Z,53.30
2019-04-23T20:44:11.883Z,53.20
2019-04-23T20:46:17.843Z,53.40
2019-04-23T20:48:25.478Z,53.40
2019-04-23T20:50:16.511Z,53.50
2019-04-23T20:52:13.797Z,53.80
2019-04-23T20:54:43.192Z,54.00
2019-04-23T20:56:42.555Z,53.80
2019-04-23T20:58:47.886Z,54.40
2019-04-23T21:00:57.026Z,54.50
2019-04-23T21:07:12.106Z,55.60
2019-04-23T21:13:29.395Z,55.50
2019-04-23T21:17:35.588Z,55.50
2019-04-23T21:19:40.198Z,55.40
2019-04-23T21:21:33.546Z,55.40
2019-04-23T21:23:37.704Z,55.40
2019-04-23T21:25:44.885Z,55.40
2019-04-23T21:32:02.508Z,56.00
2019-04-23T21:34:17.427Z,56.20
2019-04-23T21:38:27.880Z,56.10
2019-04-23T21:40:53.647Z,56.10
2019-04-23T21:42:54.675Z,55.80
2019-04-23T21:44:45.681Z,56.10
2019-04-23T21:46:51.100Z,56.10
2019-04-23T21:49:10.647Z,56.20
2019-04-23T21:51:24.447Z,56.40
2019-04-23T21:53:00.687Z,55.80
2019-04-23T21:55:05.567Z,56.10
2019-04-23T21:57:02.442Z,56.10
2019-04-23T21:59:23.230Z,55.90
2019-04-23T22:01:22.653Z,56.10
2019-04-23T22:05:25.031Z,56.40
2019-04-23T22:07:40.533Z,56.90
2019-04-23T22:13:51.582Z,56.70
2019-04-23T22:15:53.490Z,56.80
2019-04-23T22:17:47.839Z,57.40
2019-04-23T22:19:58.498Z,57.70
2019-04-23T22:24:08.707Z,59.00
2019-04-23T22:26:07.823Z,59.50
2019-04-23T22:28:03.203Z,59.60
2019-04-23T22:30:04.183Z,60.50
2019-04-23T22:32:02.791Z,61.30
2019-04-23T22:36:43.612Z,62.00
2019-04-23T22:38:29.889Z,62.30
2019-04-23T22:40:37.406Z,62.60
2019-04-23T22:44:56.114Z,63.00
2019-04-23T22:46:54.963Z,63.80
2019-04-23T22:51:31.553Z,62.20
2019-04-23T22:53:31.438Z,61.30
2019-04-23T22:55:36.665Z,62.10
2019-04-23T22:57:56.473Z,63.00
2019-04-23T23:01:56.728Z,63.40
2019-04-23T23:04:04.957Z,62.60
2019-04-23T23:06:11.000Z,63.60
2019-04-23T23:08:10.813Z,64.20
2019-04-23T23:10:18.806Z,65.20
2019-04-23T23:12:22.979Z,66.00
2019-04-23T23:14:20.206Z,66.20
2019-04-23T23:16:21.311Z,66.70
2019-04-23T23:18:23.225Z,67.00
2019-04-23T23:20:30.180Z,67.80
2019-04-23T23:22:49.729Z,67.80
2019-04-23T23:26:53.300Z,67.60
2019-04-23T23:28:51.888Z,68.30
2019-04-23T23:31:03.972Z,68.00
2019-04-23T23:32:57.089Z,68.70
2019-04-23T23:37:19.121Z,68.90
2019-04-23T23:39:16.210Z,69.00
2019-04-23T23:43:23.407Z,69.10
2019-04-23T23:47:18.260Z,68.20
2019-04-23T23:51:36.537Z,67.40
2019-04-23T23:53:42.860Z,67.90
2019-04-23T23:55:58.675Z,67.80
2019-04-23T23:57:46.860Z,68.40
